Long Lake, Michigan
Current Conditions -  °F | °C
As of 6:53 AM on Monday 22 Dec 2014 (Local Time) from KOSC Reporting Station
Overcast Overcast  
Wind Chill: 29°   Ceiling: 1900
Heat Index: 29°   Visibility: 7mi
Dew Point: 26°   Wind: 3mph
Humidity: 88%   Direction: 180°S
Pressure: 30.13"   Gusts: NA
Location:  44.42°N, 83.87°W
Report Text: KOSC 221153Z AUTO 18003KT 7SM OVC019 M01/M03 A3013 RMK AO2 T10171035
Loading
Personal Weather Stations






























Interactive Weather Map New forecast layout! Learn more

10-Day Weather Forecast

Advertisements
Track Severe Weather on mobile